createdAt,value
2022-09-12T04:20:09.952Z,1019.18
2022-09-12T04:25:04.164Z,1019.19
2022-09-12T04:29:56.487Z,1019.17
2022-09-12T04:34:48.895Z,1019.25
2022-09-12T04:39:41.461Z,1019.27
2022-09-12T04:44:33.633Z,1019.28
2022-09-12T04:49:26.252Z,1019.17
2022-09-12T04:54:18.800Z,1019.2
2022-09-12T04:59:11.167Z,1019.16
2022-09-12T05:04:03.367Z,1019.19
2022-09-12T05:08:55.593Z,1019.26
2022-09-12T05:13:48.330Z,1019.3
2022-09-12T05:18:40.956Z,1019.36
2022-09-12T05:23:33.589Z,1019.46
2022-09-12T05:28:26.218Z,1019.44
2022-09-12T05:33:22.034Z,1019.48
2022-09-12T05:38:11.218Z,1019.47
2022-09-12T05:43:03.415Z,1019.51
2022-09-12T05:47:55.829Z,1019.44
2022-09-12T05:52:48.262Z,1019.53
2022-09-12T05:57:40.545Z,1019.57
2022-09-12T06:02:33.032Z,1019.57
2022-09-12T06:07:25.219Z,1019.64
2022-09-12T06:12:17.554Z,1019.66
2022-09-12T06:17:10.053Z,1019.67
2022-09-12T06:22:02.448Z,1019.68
2022-09-12T06:26:54.680Z,1019.65
2022-09-12T06:31:47.334Z,1019.7
2022-09-12T06:36:40.017Z,1019.74
2022-09-12T06:41:32.333Z,1019.73
2022-09-12T06:46:24.676Z,1019.7
2022-09-12T06:51:17.242Z,1019.68
2022-09-12T06:56:09.536Z,1019.71
2022-09-12T07:01:01.947Z,1019.64
2022-09-12T07:05:54.449Z,1019.66
2022-09-12T07:10:46.676Z,1019.66
2022-09-12T07:15:39.395Z,1019.61
2022-09-12T07:20:31.873Z,1019.64
2022-09-12T07:25:24.299Z,1019.71
2022-09-12T07:30:16.789Z,1019.68
2022-09-12T07:35:09.459Z,1019.61
2022-09-12T07:40:01.485Z,1019.61
2022-09-12T07:44:53.966Z,1019.53
2022-09-12T07:49:46.404Z,1019.63
2022-09-12T07:54:38.921Z,1019.59
2022-09-12T07:59:51.191Z,1019.54
2022-09-12T08:04:24.428Z,1019.56
2022-09-12T08:09:17.227Z,1019.57
2022-09-12T08:14:10.001Z,1019.62
2022-09-12T08:19:02.220Z,1019.58
2022-09-12T08:23:54.475Z,1019.59
2022-09-12T08:28:47.127Z,1019.62
2022-09-12T08:33:39.625Z,1019.64
2022-09-12T08:38:32.010Z,1019.64
2022-09-12T08:43:24.289Z,1019.61
2022-09-12T08:48:16.164Z,1019.67
2022-09-12T08:53:08.552Z,1019.58
2022-09-12T08:58:01.154Z,1019.58
2022-09-12T09:02:53.848Z,1019.57
2022-09-12T09:07:46.206Z,1019.56
2022-09-12T09:12:38.947Z,1019.53
2022-09-12T09:17:31.112Z,1019.47
2022-09-12T09:22:23.355Z,1019.46
2022-09-12T09:27:30.217Z,1019.42
2022-09-12T09:32:08.801Z,1019.38
2022-09-12T09:37:01.189Z,1019.37
2022-09-12T09:41:53.784Z,1019.29
2022-09-12T09:46:46.396Z,1019.23
2022-09-12T09:51:39.268Z,1019.17
2022-09-12T09:56:31.782Z,1019.13
2022-09-12T10:01:24.217Z,1019.06
2022-09-12T10:06:16.672Z,1018.99
2022-09-12T10:11:09.196Z,1018.94
2022-09-12T10:16:01.855Z,1018.91
2022-09-12T10:20:54.721Z,1018.88
2022-09-12T10:25:47.582Z,1018.81
2022-09-12T10:30:40.350Z,1018.82
2022-09-12T10:35:32.789Z,1018.82
2022-09-12T10:40:25.535Z,1018.8
2022-09-12T10:45:18.667Z,1018.74
2022-09-12T10:50:20.892Z,1018.68
2022-09-12T10:55:03.957Z,1018.65
2022-09-12T10:59:56.621Z,1018.58
2022-09-12T11:04:49.213Z,1018.57
2022-09-12T11:09:41.580Z,1018.5
2022-09-12T11:14:33.909Z,1018.51
2022-09-12T11:24:14.622Z,1018.41
2022-09-12T11:29:08.124Z,1018.37
2022-09-12T11:34:00.730Z,1018.31
2022-09-12T11:38:53.420Z,1018.23
2022-09-12T11:43:46.162Z,1018.26
2022-09-12T11:48:38.737Z,1018.22
2022-09-12T11:53:31.208Z,1018.19
2022-09-12T11:58:23.500Z,1018.18
2022-09-12T12:03:15.681Z,1018.18
2022-09-12T12:08:08.222Z,1018.1
2022-09-12T12:13:00.768Z,1018.12
2022-09-12T12:17:53.299Z,1018.03
2022-09-12T12:22:46.059Z,1017.94
2022-09-12T12:27:38.514Z,1017.86
2022-09-12T12:32:33.216Z,1017.77
2022-09-12T12:37:25.601Z,1017.74
2022-09-12T12:42:19.557Z,1017.69
2022-09-12T12:47:10.264Z,1017.72
2022-09-12T12:52:03.068Z,1017.74
2022-09-12T12:56:55.581Z,1017.66
2022-09-12T13:01:51.594Z,1017.61
2022-09-12T13:06:40.738Z,1017.54
2022-09-12T13:11:33.473Z,1017.44
2022-09-12T13:16:26.117Z,1017.4
2022-09-12T13:21:18.780Z,1017.33
2022-09-12T13:26:11.314Z,1017.32
2022-09-12T13:31:04.033Z,1017.3
2022-09-12T13:35:56.453Z,1017.26
2022-09-12T13:40:48.984Z,1017.18
2022-09-12T13:45:41.637Z,1017.15
2022-09-12T13:50:34.078Z,1017.12
2022-09-12T13:55:27.105Z,1017.06
2022-09-12T14:00:19.967Z,1017.05
2022-09-12T14:05:12.524Z,1016.98
2022-09-12T14:10:05.009Z,1016.93
2022-09-12T14:14:57.570Z,1016.9
2022-09-12T14:19:50.393Z,1016.9
2022-09-12T14:24:43.077Z,1016.8
2022-09-12T14:29:35.642Z,1016.77
2022-09-12T14:34:30.345Z,1016.75
2022-09-12T14:39:22.719Z,1016.75
2022-09-12T14:44:15.318Z,1016.73
2022-09-12T14:49:07.779Z,1016.69
2022-09-12T14:54:00.211Z,1016.62
2022-09-12T14:58:52.888Z,1016.54
2022-09-12T15:03:49.389Z,1016.57
2022-09-12T15:08:38.199Z,1016.53
2022-09-12T15:13:30.679Z,1016.49
2022-09-12T15:18:23.256Z,1016.44
2022-09-12T15:23:15.788Z,1016.45
2022-09-12T15:28:08.437Z,1016.5
2022-09-12T15:33:01.028Z,1016.51
2022-09-12T15:37:53.564Z,1016.5
2022-09-12T15:42:46.168Z,1016.51
2022-09-12T15:47:38.550Z,1016.46
2022-09-12T15:52:31.362Z,1016.4
2022-09-12T15:57:23.878Z,1016.34
2022-09-12T16:02:16.457Z,1016.3
2022-09-12T16:07:09.132Z,1016.26
2022-09-12T16:12:01.376Z,1016.25
2022-09-12T16:16:53.954Z,1016.16
2022-09-12T16:21:46.304Z,1016.11
2022-09-12T16:26:38.984Z,1016.07
2022-09-12T16:31:31.387Z,1016.06
2022-09-12T16:36:23.941Z,1015.96
2022-09-12T16:41:16.859Z,1015.97
2022-09-12T16:46:09.110Z,1015.92
2022-09-12T16:51:01.537Z,1015.88
2022-09-12T16:55:53.852Z,1015.88
2022-09-12T17:00:47.143Z,1015.81
2022-09-12T17:05:39.657Z,1015.81
2022-09-12T17:10:32.123Z,1015.82
2022-09-12T17:15:24.875Z,1015.75
2022-09-12T17:20:17.445Z,1015.79
2022-09-12T17:25:09.792Z,1015.76
2022-09-12T17:30:02.310Z,1015.75
2022-09-12T17:34:54.983Z,1015.76
2022-09-12T17:39:47.449Z,1015.7
2022-09-12T17:44:39.863Z,1015.68
2022-09-12T17:49:32.364Z,1015.68
2022-09-12T17:54:24.961Z,1015.64
2022-09-12T17:59:17.904Z,1015.67
2022-09-12T18:04:10.494Z,1015.71
2022-09-12T18:09:03.356Z,1015.76
2022-09-12T18:13:55.442Z,1015.76
2022-09-12T18:18:48.088Z,1015.73
2022-09-12T18:23:40.756Z,1015.69
2022-09-12T18:28:32.603Z,1015.72
2022-09-12T18:33:25.368Z,1015.58
2022-09-12T18:38:17.868Z,1015.61
2022-09-12T18:43:10.417Z,1015.65
2022-09-12T18:48:02.953Z,1015.67
2022-09-12T18:52:59.069Z,1015.67
2022-09-12T18:57:48.243Z,1015.66
2022-09-12T19:02:40.563Z,1015.61
2022-09-12T19:07:33.043Z,1015.61
2022-09-12T19:12:25.068Z,1015.63
2022-09-12T19:17:17.657Z,1015.61
2022-09-12T19:22:10.108Z,1015.58
2022-09-12T19:27:02.534Z,1015.61
2022-09-12T19:31:55.220Z,1015.64
2022-09-12T19:36:48.002Z,1015.68
2022-09-12T19:41:40.737Z,1015.63
2022-09-12T19:46:33.229Z,1015.66
2022-09-12T19:51:25.895Z,1015.7
2022-09-12T19:56:18.331Z,1015.64
2022-09-12T20:01:10.766Z,1015.63
2022-09-12T20:06:03.368Z,1015.59
2022-09-12T20:10:57.111Z,1015.58
2022-09-12T20:15:48.737Z,1015.55
2022-09-12T20:20:41.236Z,1015.5
2022-09-12T20:25:33.854Z,1015.59
2022-09-12T20:30:26.371Z,1015.57
2022-09-12T20:35:18.705Z,1015.5
2022-09-12T20:40:11.271Z,1015.49
2022-09-12T20:45:03.548Z,1015.45
2022-09-12T20:49:56.017Z,1015.36
2022-09-12T20:54:48.523Z,1015.32
2022-09-12T20:59:40.946Z,1015.31
2022-09-12T21:04:33.182Z,1015.33
2022-09-12T21:09:25.536Z,1015.27
2022-09-12T21:14:18.025Z,1015.19
2022-09-12T21:19:10.225Z,1015.06
2022-09-12T21:24:02.886Z,1014.99
2022-09-12T21:28:55.443Z,1014.89
2022-09-12T21:33:48.219Z,1014.85
2022-09-12T21:38:40.553Z,1014.88
2022-09-12T21:43:33.050Z,1014.88
2022-09-12T21:48:25.627Z,1014.89
2022-09-12T21:53:18.292Z,1014.82
2022-09-12T21:58:10.765Z,1014.81
2022-09-12T22:03:03.470Z,1014.79
2022-09-12T22:07:55.732Z,1014.74
2022-09-12T22:12:48.021Z,1014.84
2022-09-12T22:17:40.841Z,1014.73
2022-09-12T22:22:33.472Z,1014.67
2022-09-12T22:27:26.185Z,1014.54
2022-09-12T22:32:18.683Z,1014.46
2022-09-12T22:37:11.041Z,1014.48
2022-09-12T22:42:03.590Z,1014.49
2022-09-12T22:46:56.438Z,1014.44
2022-09-12T22:51:48.728Z,1014.46
2022-09-12T22:56:41.507Z,1014.4
2022-09-12T23:01:33.991Z,1014.33
2022-09-12T23:06:26.449Z,1014.36
2022-09-12T23:11:18.928Z,1014.38
2022-09-12T23:16:11.420Z,1014.28
2022-09-12T23:21:03.935Z,1014.19
2022-09-12T23:25:56.520Z,1014.2
2022-09-12T23:30:49.303Z,1014.31
2022-09-12T23:35:41.611Z,1014.21
2022-09-12T23:40:34.185Z,1014.03
2022-09-12T23:45:26.724Z,1014.02
2022-09-12T23:50:19.406Z,1014.03
2022-09-12T23:55:11.455Z,1013.95
